createdAt,value
2018-10-18T00:02:27.212Z,8.53
2018-10-18T00:04:57.312Z,8.30
2018-10-18T00:07:26.054Z,8.00
2018-10-18T00:09:55.598Z,7.80
2018-10-18T00:12:24.601Z,7.33
2018-10-18T00:14:53.541Z,7.10
2018-10-18T00:17:27.730Z,6.80
2018-10-18T00:19:57.605Z,5.57
2018-10-18T00:22:27.051Z,6.77
2018-10-18T00:24:56.943Z,7.60
2018-10-18T00:27:26.567Z,6.33
2018-10-18T00:29:55.867Z,6.60
2018-10-18T00:32:25.337Z,7.00
2018-10-18T00:34:54.943Z,6.30
2018-10-18T00:37:24.047Z,6.63
2018-10-18T00:39:53.166Z,7.27
2018-10-18T00:42:22.330Z,6.50
2018-10-18T00:44:50.921Z,6.50
2018-10-18T00:47:21.360Z,6.67
2018-10-18T00:49:50.006Z,6.43
2018-10-18T00:52:18.786Z,6.60
2018-10-18T00:54:47.397Z,6.70
2018-10-18T00:57:16.364Z,6.13
2018-10-18T00:59:45.213Z,6.17
2018-10-18T01:02:14.303Z,6.70
2018-10-18T01:04:43.038Z,6.20
2018-10-18T01:07:11.557Z,5.70
2018-10-18T01:09:42.950Z,5.97
2018-10-18T01:12:11.567Z,5.87
2018-10-18T01:14:41.405Z,5.87
2018-10-18T01:17:11.443Z,5.67
2018-10-18T01:19:42.841Z,5.97
2018-10-18T01:22:12.563Z,5.90
2018-10-18T01:24:41.482Z,5.20
2018-10-18T01:27:11.429Z,6.00
2018-10-18T01:29:40.967Z,5.57
2018-10-18T01:34:54.423Z,5.40
2018-10-18T01:37:24.538Z,5.43
2018-10-18T01:39:53.651Z,5.80
2018-10-18T01:42:22.827Z,5.43
2018-10-18T01:44:53.223Z,5.30
2018-10-18T01:47:22.358Z,5.73
2018-10-18T01:49:51.987Z,5.63
2018-10-18T01:52:21.388Z,5.30
2018-10-18T01:54:51.395Z,6.10
2018-10-18T01:57:20.688Z,5.83
2018-10-18T01:59:51.731Z,6.17
2018-10-18T02:02:20.943Z,5.77
2018-10-18T02:04:51.068Z,5.97
2018-10-18T02:07:20.256Z,6.77
2018-10-18T02:09:53.128Z,6.47
2018-10-18T02:12:28.696Z,7.00
2018-10-18T02:14:59.049Z,7.13
2018-10-18T02:17:28.828Z,8.00
2018-10-18T02:19:59.269Z,7.83
2018-10-18T02:22:29.116Z,8.10
2018-10-18T02:25:01.247Z,8.33
2018-10-18T02:27:31.462Z,8.97
2018-10-18T02:30:00.873Z,8.57
2018-10-18T02:32:35.998Z,9.20
2018-10-18T02:35:06.032Z,10.40
2018-10-18T02:37:35.672Z,10.50
2018-10-18T02:40:05.066Z,11.43
2018-10-18T02:42:34.946Z,11.33
2018-10-18T02:45:10.145Z,8.60
2018-10-18T02:47:41.128Z,7.03
2018-10-18T02:50:11.252Z,6.57
2018-10-18T02:52:41.568Z,6.70
2018-10-18T02:55:11.732Z,6.67
2018-10-18T02:57:41.843Z,7.00
2018-10-18T03:00:12.261Z,6.37
2018-10-18T03:02:43.791Z,5.33
2018-10-18T03:05:13.405Z,5.53
2018-10-18T03:07:43.508Z,5.00
2018-10-18T03:10:14.191Z,5.20
2018-10-18T03:12:43.648Z,4.77
2018-10-18T03:15:17.328Z,4.90
2018-10-18T03:17:46.697Z,5.17
2018-10-18T03:20:15.971Z,4.80
2018-10-18T03:22:45.520Z,4.73
2018-10-18T03:25:14.773Z,4.83
2018-10-18T03:27:44.340Z,4.87
2018-10-18T03:30:13.303Z,4.33
2018-10-18T03:32:43.393Z,4.20
2018-10-18T03:35:12.251Z,4.20
2018-10-18T03:40:26.421Z,4.30
2018-10-18T03:42:56.595Z,4.43
2018-10-18T03:45:26.069Z,3.87
2018-10-18T03:47:55.426Z,4.47
2018-10-18T03:50:24.991Z,3.63
2018-10-18T03:52:54.257Z,3.83
2018-10-18T03:55:23.343Z,3.57
2018-10-18T03:57:52.304Z,4.27
2018-10-18T04:00:21.537Z,3.67
2018-10-18T04:02:52.738Z,3.57
2018-10-18T04:05:21.783Z,4.53
2018-10-18T04:07:51.893Z,3.43
2018-10-18T04:10:21.145Z,3.47
2018-10-18T04:12:50.113Z,3.60
2018-10-18T04:15:20.664Z,4.00
2018-10-18T04:17:50.166Z,3.20
2018-10-18T04:20:19.176Z,3.67
2018-10-18T04:22:48.151Z,3.53
2018-10-18T04:25:17.658Z,3.47
2018-10-18T04:27:48.094Z,3.00
2018-10-18T04:30:17.847Z,3.53
2018-10-18T04:32:47.113Z,3.23
2018-10-18T04:35:18.915Z,3.30
2018-10-18T04:37:48.754Z,3.50
2018-10-18T04:40:19.341Z,3.43
2018-10-18T04:42:48.658Z,3.70
2018-10-18T04:45:20.221Z,3.10
2018-10-18T04:47:49.655Z,3.23
2018-10-18T04:50:18.829Z,3.40
2018-10-18T04:52:48.272Z,3.30
2018-10-18T04:55:18.481Z,3.60
2018-10-18T04:57:48.609Z,2.97
2018-10-18T05:00:19.800Z,2.93
2018-10-18T05:02:50.984Z,3.40
2018-10-18T05:05:31.051Z,2.93
2018-10-18T05:08:00.002Z,3.20
2018-10-18T05:10:29.386Z,3.30
2018-10-18T05:12:58.220Z,3.00
2018-10-18T05:15:27.065Z,2.83
2018-10-18T05:17:56.904Z,3.30
2018-10-18T05:20:25.739Z,2.70
2018-10-18T05:22:57.036Z,2.80
2018-10-18T05:25:27.399Z,3.73
2018-10-18T05:27:56.352Z,2.63
2018-10-18T05:30:27.036Z,2.70
2018-10-18T05:32:56.125Z,2.83
2018-10-18T05:35:25.840Z,3.57
2018-10-18T05:40:58.898Z,3.20
2018-10-18T05:43:28.733Z,3.20
2018-10-18T05:45:58.195Z,2.57
2018-10-18T05:48:27.313Z,2.90
2018-10-18T05:50:57.061Z,3.20
2018-10-18T05:53:26.766Z,3.30
2018-10-18T05:55:55.871Z,3.83
2018-10-18T05:58:24.932Z,3.83
2018-10-18T06:00:53.848Z,3.13
2018-10-18T06:03:24.561Z,3.00
2018-10-18T06:11:56.119Z,3.17
2018-10-18T06:14:25.268Z,2.97
2018-10-18T06:16:56.197Z,3.80
2018-10-18T06:19:25.216Z,3.73
2018-10-18T06:24:33.887Z,4.03
2018-10-18T06:27:03.049Z,3.37
2018-10-18T06:29:31.817Z,3.50
2018-10-18T06:32:00.912Z,3.40
2018-10-18T06:34:36.922Z,3.70
2018-10-18T06:37:12.599Z,3.43
2018-10-18T06:39:41.204Z,3.20
2018-10-18T06:42:09.670Z,3.77
2018-10-18T06:44:38.461Z,3.70
2018-10-18T06:47:07.282Z,3.53
2018-10-18T06:49:36.027Z,3.30
2018-10-18T06:52:04.722Z,3.17
2018-10-18T06:54:33.374Z,3.60
2018-10-18T06:57:01.890Z,3.50
2018-10-18T06:59:31.812Z,4.07
2018-10-18T07:02:00.511Z,3.47
2018-10-18T07:04:29.237Z,3.80
2018-10-18T07:06:58.188Z,3.97
2018-10-18T07:09:27.909Z,3.80
2018-10-18T07:11:57.641Z,3.50
2018-10-18T07:14:26.252Z,3.43
2018-10-18T07:16:54.953Z,3.80
2018-10-18T07:19:25.189Z,3.97
2018-10-18T07:21:54.692Z,4.30
2018-10-18T07:24:23.347Z,4.03
2018-10-18T07:26:52.071Z,3.63
2018-10-18T07:29:20.592Z,3.90
2018-10-18T07:31:49.211Z,3.53
2018-10-18T07:34:18.385Z,3.87
2018-10-18T07:36:47.329Z,3.73
2018-10-18T07:39:17.090Z,3.20
2018-10-18T07:41:46.661Z,3.57
2018-10-18T07:44:15.638Z,3.80
2018-10-18T07:46:44.284Z,3.30
2018-10-18T07:49:12.965Z,3.10
2018-10-18T07:51:41.750Z,3.00
2018-10-18T07:54:10.318Z,3.47
2018-10-18T07:56:39.010Z,3.43
2018-10-18T07:59:07.493Z,3.77
2018-10-18T08:01:36.120Z,3.93
2018-10-18T08:04:05.506Z,2.93
2018-10-18T08:06:34.101Z,3.13
2018-10-18T08:09:04.029Z,3.13
2018-10-18T08:11:33.195Z,3.37
2018-10-18T08:14:01.894Z,3.13
2018-10-18T08:16:30.924Z,2.97
2018-10-18T08:18:59.624Z,2.43
2018-10-18T08:21:28.315Z,2.70
2018-10-18T08:23:57.139Z,2.80
2018-10-18T08:26:25.932Z,2.83
2018-10-18T08:28:55.112Z,2.53
2018-10-18T08:31:24.007Z,2.73
2018-10-18T08:33:52.959Z,4.30
2018-10-18T08:36:21.539Z,12.70
2018-10-18T08:38:50.340Z,3.80
2018-10-18T08:41:19.247Z,3.17
2018-10-18T08:43:48.090Z,2.70
2018-10-18T08:46:17.896Z,2.90
2018-10-18T08:48:46.555Z,2.90
2018-10-18T08:51:15.197Z,2.07
2018-10-18T08:53:43.921Z,2.77
2018-10-18T08:56:12.505Z,2.30
2018-10-18T08:58:41.367Z,2.03
2018-10-18T09:01:10.387Z,2.43
2018-10-18T09:03:39.142Z,2.77
2018-10-18T09:06:08.231Z,2.70
2018-10-18T09:08:36.931Z,2.40
2018-10-18T09:11:06.407Z,1.93
2018-10-18T09:13:35.552Z,1.87
2018-10-18T09:16:04.598Z,2.20
2018-10-18T09:18:33.273Z,2.10
2018-10-18T09:21:02.215Z,1.83
2018-10-18T09:23:30.894Z,1.70
2018-10-18T09:25:59.367Z,2.27
2018-10-18T09:28:28.016Z,5.03
2018-10-18T09:30:56.966Z,2.63
2018-10-18T09:33:27.571Z,2.17
2018-10-18T09:35:59.878Z,2.47
2018-10-18T09:38:30.883Z,2.33
2018-10-18T09:41:01.086Z,2.03
2018-10-18T09:43:44.009Z,2.03
2018-10-18T09:46:20.772Z,2.00
2018-10-18T09:52:05.229Z,2.17
2018-10-18T09:57:35.272Z,2.23
2018-10-18T10:00:12.537Z,2.17
2018-10-18T10:02:48.331Z,2.10
2018-10-18T10:05:17.572Z,2.27
2018-10-18T10:07:48.631Z,2.70
2018-10-18T10:19:06.622Z,2.20
2018-10-18T10:21:36.723Z,2.10
2018-10-18T10:24:06.706Z,1.90
2018-10-18T10:26:35.036Z,2.27
2018-10-18T10:29:03.228Z,2.13
2018-10-18T10:31:31.656Z,2.07
2018-10-18T10:34:01.184Z,2.50
2018-10-18T10:36:30.578Z,2.53
2018-10-18T10:38:59.635Z,2.03
2018-10-18T10:41:28.348Z,1.80
2018-10-18T10:43:58.296Z,2.17
2018-10-18T10:46:27.715Z,2.00
2018-10-18T10:48:56.645Z,2.10
2018-10-18T10:51:25.185Z,1.63
2018-10-18T10:53:53.753Z,2.20
2018-10-18T10:56:23.405Z,2.47
2018-10-18T10:58:52.141Z,2.03
2018-10-18T11:01:22.040Z,1.90
2018-10-18T11:03:52.276Z,2.43
2018-10-18T11:06:20.974Z,1.90
2018-10-18T11:08:49.357Z,2.20
2018-10-18T11:11:19.361Z,2.00
2018-10-18T11:13:47.685Z,2.20
2018-10-18T11:16:16.051Z,1.77
2018-10-18T11:24:56.817Z,1.90
2018-10-18T11:27:32.815Z,2.30
2018-10-18T11:30:01.661Z,1.73
2018-10-18T11:32:38.320Z,1.63
2018-10-18T11:35:07.939Z,1.87
2018-10-18T11:37:36.318Z,1.90
2018-10-18T11:40:04.886Z,2.30
2018-10-18T11:42:33.184Z,2.57
2018-10-18T11:45:01.322Z,1.80
2018-10-18T11:47:29.613Z,2.00
2018-10-18T11:49:57.770Z,1.70
2018-10-18T11:52:25.929Z,2.20
2018-10-18T11:54:54.094Z,2.13
2018-10-18T11:57:22.301Z,2.13
2018-10-18T11:59:50.471Z,2.20
2018-10-18T12:02:18.718Z,2.10
2018-10-18T12:04:46.862Z,1.80
2018-10-18T12:07:15.154Z,1.83
2018-10-18T12:09:43.538Z,1.70
2018-10-18T12:12:11.935Z,1.73
2018-10-18T12:14:40.290Z,1.80
2018-10-18T12:17:09.249Z,1.83
2018-10-18T12:19:37.249Z,1.90
2018-10-18T12:22:05.578Z,1.60
2018-10-18T12:24:33.917Z,1.73
2018-10-18T12:27:02.398Z,15.67
2018-10-18T12:29:32.075Z,10.37
2018-10-18T12:32:00.387Z,2.13
2018-10-18T12:34:28.765Z,1.97
2018-10-18T12:36:57.466Z,1.60
2018-10-18T12:39:25.850Z,1.20
2018-10-18T12:41:54.902Z,1.60
2018-10-18T12:44:24.238Z,1.57
2018-10-18T12:46:52.862Z,1.70
2018-10-18T12:49:22.248Z,1.60
2018-10-18T12:51:50.718Z,1.67
2018-10-18T12:54:19.257Z,1.30
2018-10-18T12:56:47.511Z,1.67
2018-10-18T12:59:15.867Z,1.60
2018-10-18T13:01:44.942Z,1.70
2018-10-18T13:04:13.093Z,1.30
2018-10-18T13:06:41.314Z,1.43
2018-10-18T13:09:10.419Z,1.47
2018-10-18T13:11:38.983Z,1.57
2018-10-18T13:14:07.287Z,1.70
2018-10-18T13:16:35.623Z,1.80
2018-10-18T13:19:30.681Z,1.53
2018-10-18T13:22:06.663Z,1.53
2018-10-18T13:24:40.374Z,1.27
2018-10-18T13:27:12.549Z,1.47
2018-10-18T13:36:00.839Z,3.33
2018-10-18T13:38:29.072Z,1.80
2018-10-18T13:40:57.170Z,4.13
2018-10-18T13:43:25.313Z,1.67
2018-10-18T13:45:55.126Z,1.70
2018-10-18T13:48:23.233Z,1.53
2018-10-18T13:50:51.443Z,1.70
2018-10-18T13:53:19.674Z,1.17
2018-10-18T13:55:47.976Z,1.60
2018-10-18T13:58:16.857Z,1.30
2018-10-18T14:00:49.650Z,1.60
2018-10-18T14:03:32.156Z,1.33
2018-10-18T14:06:05.891Z,1.50
2018-10-18T14:18:17.571Z,1.30
2018-10-18T14:20:46.061Z,2.40
2018-10-18T14:26:27.932Z,2.73
2018-10-18T14:28:58.103Z,2.30
2018-10-18T15:16:20.400Z,1.67
2018-10-18T15:18:58.766Z,1.40
2018-10-18T15:21:27.964Z,1.33
2018-10-18T15:23:56.965Z,1.67
2018-10-18T15:26:25.989Z,2.23
2018-10-18T15:28:54.600Z,1.70
2018-10-18T15:31:25.060Z,1.40
2018-10-18T15:33:53.701Z,2.37
2018-10-18T15:36:22.648Z,2.53
2018-10-18T15:38:53.229Z,1.97
2018-10-18T15:41:29.079Z,1.77
2018-10-18T15:43:58.171Z,1.67
2018-10-18T15:46:29.968Z,1.83
2018-10-18T15:49:00.237Z,1.80
2018-10-18T15:54:20.593Z,1.80
2018-10-18T15:56:49.475Z,2.00
2018-10-18T15:59:29.226Z,2.00
2018-10-18T16:02:00.504Z,1.90
2018-10-18T16:04:41.797Z,1.80
2018-10-18T16:07:13.100Z,1.50
2018-10-18T16:09:42.134Z,1.93
2018-10-18T16:12:12.372Z,2.37
2018-10-18T16:14:41.989Z,2.10
2018-10-18T16:17:12.492Z,2.00
2018-10-18T16:19:41.655Z,1.83
2018-10-18T16:22:10.662Z,1.77
2018-10-18T16:24:43.171Z,1.97
2018-10-18T16:27:15.976Z,1.70
2018-10-18T16:29:45.799Z,2.10
2018-10-18T16:32:15.515Z,3.77
2018-10-18T16:34:47.219Z,1.73
2018-10-18T16:37:17.132Z,2.40
2018-10-18T16:39:46.581Z,1.80
2018-10-18T16:45:17.826Z,2.70
2018-10-18T16:47:47.814Z,3.40
2018-10-18T16:50:18.553Z,2.90
2018-10-18T16:52:49.286Z,3.00
2018-10-18T16:55:18.484Z,2.57
2018-10-18T16:57:47.395Z,2.50
2018-10-18T17:00:17.240Z,2.70
2018-10-18T17:02:45.868Z,2.70
2018-10-18T17:05:14.592Z,2.67
2018-10-18T17:07:43.473Z,2.50
2018-10-18T17:10:12.422Z,2.60
2018-10-18T17:12:41.434Z,2.37
2018-10-18T17:15:10.292Z,2.53
2018-10-18T17:17:39.230Z,3.40
2018-10-18T17:20:12.052Z,2.60
2018-10-18T17:22:45.037Z,2.90
2018-10-18T17:39:49.425Z,2.90
2018-10-18T17:42:19.134Z,2.70
2018-10-18T17:44:48.945Z,3.03
2018-10-18T17:47:17.823Z,3.43
2018-10-18T17:49:47.990Z,3.47
2018-10-18T17:52:18.469Z,3.73
2018-10-18T17:57:35.802Z,3.40
2018-10-18T18:00:12.293Z,3.87
2018-10-18T18:02:41.480Z,4.00
2018-10-18T18:05:15.047Z,5.00
2018-10-18T18:07:46.962Z,4.90
2018-10-18T18:10:35.212Z,4.40
2018-10-18T19:27:10.610Z,3.43
2018-10-18T19:33:17.499Z,3.13
2018-10-18T19:36:33.477Z,3.37
2018-10-18T19:42:17.337Z,3.00
2018-10-18T19:45:29.639Z,3.50
2018-10-18T19:48:15.124Z,3.63
2018-10-18T20:04:49.019Z,4.30
